sensor_id;sensor_type;location;lat;lon;timestamp;pressure;altitude;pressure_sealevel;temperature;humidity
48964;BME280;34776;48.180;16.420;2023-03-01T00:01:54;100912.94;;;0.90;56.65
48964;BME280;34776;48.180;16.420;2023-03-01T00:04:19;100925.19;;;0.93;56.17
48964;BME280;34776;48.180;16.420;2023-03-01T00:06:45;100919.94;;;0.93;56.03
48964;BME280;34776;48.180;16.420;2023-03-01T00:09:14;100923.41;;;0.90;56.06
48964;BME280;34776;48.180;16.420;2023-03-01T00:11:40;100916.41;;;0.88;56.18
48964;BME280;34776;48.180;16.420;2023-03-01T00:14:05;100910.31;;;0.87;56.02
48964;BME280;34776;48.180;16.420;2023-03-01T00:16:37;100908.56;;;0.85;56.08
48964;BME280;34776;48.180;16.420;2023-03-01T00:19:05;100904.19;;;0.84;56.08
48964;BME280;34776;48.180;16.420;2023-03-01T00:21:31;100901.56;;;0.82;56.16
48964;BME280;34776;48.180;16.420;2023-03-01T00:23:57;100906.78;;;0.79;56.12
48964;BME280;34776;48.180;16.420;2023-03-01T00:26:24;100912.00;;;0.76;56.22
48964;BME280;34776;48.180;16.420;2023-03-01T00:28:50;100906.72;;;0.73;56.14
48964;BME280;34776;48.180;16.420;2023-03-01T00:31:18;100914.56;;;0.71;56.09
48964;BME280;34776;48.180;16.420;2023-03-01T00:33:44;100911.06;;;0.69;56.30
48964;BME280;34776;48.180;16.420;2023-03-01T00:36:12;100913.69;;;0.68;56.23
48964;BME280;34776;48.180;16.420;2023-03-01T00:38:40;100913.66;;;0.65;56.33
48964;BME280;34776;48.180;16.420;2023-03-01T00:41:11;100910.16;;;0.63;56.28
48964;BME280;34776;48.180;16.420;2023-03-01T00:43:36;100901.44;;;0.62;56.50
48964;BME280;34776;48.180;16.420;2023-03-01T00:46:07;100897.09;;;0.61;56.62
48964;BME280;34776;48.180;16.420;2023-03-01T00:48:33;100904.91;;;0.59;56.61
48964;BME280;34776;48.180;16.420;2023-03-01T00:51:28;100897.88;;;0.52;57.25
48964;BME280;34776;48.180;16.420;2023-03-01T00:53:55;100897.91;;;0.58;56.64
48964;BME280;34776;48.180;16.420;2023-03-01T00:56:22;100890.06;;;0.57;56.54
48964;BME280;34776;48.180;16.420;2023-03-01T00:58:47;100887.41;;;0.52;56.75
48964;BME280;34776;48.180;16.420;2023-03-01T01:01:15;100889.13;;;0.50;56.80
48964;BME280;34776;48.180;16.420;2023-03-01T01:03:49;100880.41;;;0.48;56.68
48964;BME280;34776;48.180;16.420;2023-03-01T01:06:21;100888.25;;;0.47;57.07
48964;BME280;34776;48.180;16.420;2023-03-01T01:08:46;100889.13;;;0.47;57.24
48964;BME280;34776;48.180;16.420;2023-03-01T01:11:12;100885.63;;;0.48;56.98
48964;BME280;34776;48.180;16.420;2023-03-01T01:13:38;100882.16;;;0.49;56.97
48964;BME280;34776;48.180;16.420;2023-03-01T01:16:05;100888.28;;;0.51;56.86
48964;BME280;34776;48.180;16.420;2023-03-01T01:18:30;100895.28;;;0.54;57.14
48964;BME280;34776;48.180;16.420;2023-03-01T01:20:55;100887.44;;;0.55;57.06
48964;BME280;34776;48.180;16.420;2023-03-01T01:23:21;100883.13;;;0.62;57.19
48964;BME280;34776;48.180;16.420;2023-03-01T01:25:46;100877.91;;;0.67;57.40
48964;BME280;34776;48.180;16.420;2023-03-01T01:28:11;100876.22;;;0.73;57.52
48964;BME280;34776;48.180;16.420;2023-03-01T01:30:37;100873.69;;;0.84;57.37
48964;BME280;34776;48.180;16.420;2023-03-01T01:33:02;100866.72;;;0.94;57.27
48964;BME280;34776;48.180;16.420;2023-03-01T01:35:27;100864.19;;;1.08;57.24
48964;BME280;34776;48.180;16.420;2023-03-01T01:37:53;100867.72;;;1.20;56.95
48964;BME280;34776;48.180;16.420;2023-03-01T01:40:18;100865.13;;;1.30;56.75
48964;BME280;34776;48.180;16.420;2023-03-01T01:42:44;100857.31;;;1.33;56.81
48964;BME280;34776;48.180;16.420;2023-03-01T01:45:35;100857.31;;;1.33;57.15
48964;BME280;34776;48.180;16.420;2023-03-01T01:48:07;100849.47;;;1.44;56.87
48964;BME280;34776;48.180;16.420;2023-03-01T01:50:39;100846.88;;;1.51;56.67
48964;BME280;34776;48.180;16.420;2023-03-01T01:53:15;100850.38;;;1.56;56.70
48964;BME280;34776;48.180;16.420;2023-03-01T01:55:45;100850.38;;;1.62;56.75
48964;BME280;34776;48.180;16.420;2023-03-01T01:58:15;100857.41;;;1.68;56.65
48964;BME280;34776;48.180;16.420;2023-03-01T02:00:42;100855.66;;;1.73;56.50
48964;BME280;34776;48.180;16.420;2023-03-01T02:03:11;100846.91;;;1.76;56.41
48964;BME280;34776;48.180;16.420;2023-03-01T02:05:47;100846.06;;;1.77;56.45
48964;BME280;34776;48.180;16.420;2023-03-01T02:08:17;100846.91;;;1.77;56.44
48964;BME280;34776;48.180;16.420;2023-03-01T02:10:44;100844.31;;;1.74;56.39
48964;BME280;34776;48.180;16.420;2023-03-01T02:13:10;100839.91;;;1.76;56.58
48964;BME280;34776;48.180;16.420;2023-03-01T02:15:38;100838.19;;;1.83;56.43
48964;BME280;34776;48.180;16.420;2023-03-01T02:18:05;100837.31;;;1.86;56.58
48964;BME280;34776;48.180;16.420;2023-03-01T02:20:54;100835.56;;;1.85;56.34
48964;BME280;34776;48.180;16.420;2023-03-01T02:23:23;100839.94;;;1.98;56.18
48964;BME280;34776;48.180;16.420;2023-03-01T02:26:20;100843.44;;;1.97;56.09
48964;BME280;34776;48.180;16.420;2023-03-01T02:28:50;100839.06;;;1.99;55.99
48964;BME280;34776;48.180;16.420;2023-03-01T02:31:18;100844.31;;;1.99;56.08
48964;BME280;34776;48.180;16.420;2023-03-01T02:34:02;100842.56;;;1.95;56.49
48964;BME280;34776;48.180;16.420;2023-03-01T02:36:34;100834.69;;;1.99;56.00
48964;BME280;34776;48.180;16.420;2023-03-01T02:39:03;100840.81;;;1.94;56.04
48964;BME280;34776;48.180;16.420;2023-03-01T02:41:33;100827.72;;;1.88;56.23
48964;BME280;34776;48.180;16.420;2023-03-01T02:44:00;100829.44;;;1.82;56.28
48964;BME280;34776;48.180;16.420;2023-03-01T02:46:26;100827.72;;;1.81;56.40
48964;BME280;34776;48.180;16.420;2023-03-01T02:48:56;100827.69;;;1.85;56.47
48964;BME280;34776;48.180;16.420;2023-03-01T02:56:31;100823.34;;;1.96;56.33
48964;BME280;34776;48.180;16.420;2023-03-01T02:58:57;100820.72;;;1.96;56.17
48964;BME280;34776;48.180;16.420;2023-03-01T03:01:27;100819.84;;;1.94;56.20
48964;BME280;34776;48.180;16.420;2023-03-01T03:04:03;100825.09;;;2.00;56.27
48964;BME280;34776;48.180;16.420;2023-03-01T03:06:28;100820.72;;;2.02;56.26
48964;BME280;34776;48.180;16.420;2023-03-01T03:08:54;100826.81;;;2.06;56.21
48964;BME280;34776;48.180;16.420;2023-03-01T03:11:19;100815.47;;;1.99;56.50
48964;BME280;34776;48.180;16.420;2023-03-01T03:13:45;100818.09;;;1.99;56.52
48964;BME280;34776;48.180;16.420;2023-03-01T03:16:13;100808.50;;;2.04;56.39
48964;BME280;34776;48.180;16.420;2023-03-01T03:18:38;100816.38;;;2.10;56.34
48964;BME280;34776;48.180;16.420;2023-03-01T03:21:08;100806.75;;;2.12;56.42
48964;BME280;34776;48.180;16.420;2023-03-01T03:23:35;100805.88;;;2.10;56.36
48964;BME280;34776;48.180;16.420;2023-03-01T03:26:01;100801.50;;;2.06;56.43
48964;BME280;34776;48.180;16.420;2023-03-01T03:28:29;100806.75;;;2.05;56.75
48964;BME280;34776;48.180;16.420;2023-03-01T03:30:55;100803.22;;;1.99;56.61
48964;BME280;34776;48.180;16.420;2023-03-01T03:33:21;100810.25;;;1.91;56.73
48964;BME280;34776;48.180;16.420;2023-03-01T03:35:48;100800.63;;;1.92;56.67
48964;BME280;34776;48.180;16.420;2023-03-01T03:38:15;100798.88;;;1.97;56.79
48964;BME280;34776;48.180;16.420;2023-03-01T03:40:52;100802.38;;;2.02;56.85
48964;BME280;34776;48.180;16.420;2023-03-01T03:43:26;100798.88;;;2.06;56.73
48964;BME280;34776;48.180;16.420;2023-03-01T03:45:51;100807.63;;;2.08;56.71
48964;BME280;34776;48.180;16.420;2023-03-01T03:48:17;100810.25;;;2.07;56.54
48964;BME280;34776;48.180;16.420;2023-03-01T03:50:48;100801.50;;;2.11;56.49
48964;BME280;34776;48.180;16.420;2023-03-01T03:53:14;100803.25;;;2.15;56.33
48964;BME280;34776;48.180;16.420;2023-03-01T03:55:40;100792.78;;;2.10;56.61
48964;BME280;34776;48.180;16.420;2023-03-01T03:58:08;100791.88;;;2.05;56.62
48964;BME280;34776;48.180;16.420;2023-03-01T04:00:36;100796.25;;;2.05;56.56
48964;BME280;34776;48.180;16.420;2023-03-01T04:03:02;100797.13;;;2.02;56.77
48964;BME280;34776;48.180;16.420;2023-03-01T04:05:28;100796.25;;;2.01;56.63
48964;BME280;34776;48.180;16.420;2023-03-01T04:07:54;100796.25;;;1.98;56.81
48964;BME280;34776;48.180;16.420;2023-03-01T04:10:37;100797.13;;;1.96;56.92
48964;BME280;34776;48.180;16.420;2023-03-01T04:13:04;100790.13;;;1.89;56.91
48964;BME280;34776;48.180;16.420;2023-03-01T04:15:30;100792.78;;;1.86;57.20
48964;BME280;34776;48.180;16.420;2023-03-01T04:17:56;100796.25;;;1.86;57.16
48964;BME280;34776;48.180;16.420;2023-03-01T04:20:28;100798.00;;;1.86;57.36
48964;BME280;34776;48.180;16.420;2023-03-01T04:23:09;100793.66;;;1.88;57.34
48964;BME280;34776;48.180;16.420;2023-03-01T04:25:57;100794.50;;;1.88;57.20
48964;BME280;34776;48.180;16.420;2023-03-01T04:30:53;100805.84;;;1.89;57.20
48964;BME280;34776;48.180;16.420;2023-03-01T04:33:19;100799.75;;;1.96;56.88
48964;BME280;34776;48.180;16.420;2023-03-01T04:35:44;100797.13;;;2.02;56.99
48964;BME280;34776;48.180;16.420;2023-03-01T04:38:10;100807.59;;;1.99;57.08
48964;BME280;34776;48.180;16.420;2023-03-01T04:40:36;100801.50;;;1.94;57.19
48964;BME280;34776;48.180;16.420;2023-03-01T04:43:01;100802.38;;;1.87;57.09
48964;BME280;34776;48.180;16.420;2023-03-01T04:45:27;100798.88;;;1.81;57.37
48964;BME280;34776;48.180;16.420;2023-03-01T04:47:53;100794.50;;;1.82;57.54
48964;BME280;34776;48.180;16.420;2023-03-01T04:50:19;100798.88;;;1.85;57.51
48964;BME280;34776;48.180;16.420;2023-03-01T04:52:48;100792.78;;;1.86;57.30
48964;BME280;34776;48.180;16.420;2023-03-01T04:55:14;100803.25;;;1.86;57.78
48964;BME280;34776;48.180;16.420;2023-03-01T04:57:39;100803.25;;;1.84;57.31
48964;BME280;34776;48.180;16.420;2023-03-01T05:00:07;100801.50;;;1.80;57.80
48964;BME280;34776;48.180;16.420;2023-03-01T05:02:59;100803.25;;;1.79;57.50
48964;BME280;34776;48.180;16.420;2023-03-01T05:05:31;100811.09;;;1.82;57.62
48964;BME280;34776;48.180;16.420;2023-03-01T05:07:59;100816.34;;;1.86;57.63
48964;BME280;34776;48.180;16.420;2023-03-01T05:10:28;100813.72;;;1.90;57.29
48964;BME280;34776;48.180;16.420;2023-03-01T05:12:58;100810.22;;;1.93;57.54
48964;BME280;34776;48.180;16.420;2023-03-01T05:15:25;100808.47;;;1.89;57.65
48964;BME280;34776;48.180;16.420;2023-03-01T05:17:52;100806.72;;;1.97;57.68
48964;BME280;34776;48.180;16.420;2023-03-01T05:20:19;100809.38;;;2.00;57.50
48964;BME280;34776;48.180;16.420;2023-03-01T05:22:48;100812.00;;;1.98;57.55
48964;BME280;34776;48.180;16.420;2023-03-01T05:25:13;100812.00;;;1.95;57.82
48964;BME280;34776;48.180;16.420;2023-03-01T05:27:39;100819.84;;;1.97;57.38
48964;BME280;34776;48.180;16.420;2023-03-01T05:30:05;100821.59;;;2.01;57.60
48964;BME280;34776;48.180;16.420;2023-03-01T05:32:42;100824.22;;;2.09;57.48
48964;BME280;34776;48.180;16.420;2023-03-01T05:35:10;100824.22;;;2.07;57.38
48964;BME280;34776;48.180;16.420;2023-03-01T05:37:39;100820.72;;;2.13;57.16
48964;BME280;34776;48.180;16.420;2023-03-01T05:40:05;100823.31;;;2.20;57.21
48964;BME280;34776;48.180;16.420;2023-03-01T05:42:30;100825.94;;;2.27;57.02
48964;BME280;34776;48.180;16.420;2023-03-01T05:44:55;100832.06;;;2.29;56.72
48964;BME280;34776;48.180;16.420;2023-03-01T05:47:21;100825.06;;;2.31;56.71
48964;BME280;34776;48.180;16.420;2023-03-01T05:49:47;100832.06;;;2.32;57.00
48964;BME280;34776;48.180;16.420;2023-03-01T05:52:12;100833.81;;;2.33;56.74
48964;BME280;34776;48.180;16.420;2023-03-01T05:54:37;100836.44;;;2.36;56.83
48964;BME280;34776;48.180;16.420;2023-03-01T05:57:03;100832.06;;;2.36;57.03
48964;BME280;34776;48.180;16.420;2023-03-01T05:59:29;100831.19;;;2.33;57.19
48964;BME280;34776;48.180;16.420;2023-03-01T06:01:54;100835.53;;;2.37;56.97
48964;BME280;34776;48.180;16.420;2023-03-01T06:04:19;100839.03;;;2.39;57.21
48964;BME280;34776;48.180;16.420;2023-03-01T06:06:45;100838.16;;;2.48;56.96
48964;BME280;34776;48.180;16.420;2023-03-01T06:09:11;100835.53;;;2.49;57.03
48964;BME280;34776;48.180;16.420;2023-03-01T06:11:37;100839.91;;;2.46;56.79
48964;BME280;34776;48.180;16.420;2023-03-01T06:14:03;100845.16;;;2.47;56.92
48964;BME280;34776;48.180;16.420;2023-03-01T06:16:28;100841.66;;;2.47;56.92
48964;BME280;34776;48.180;16.420;2023-03-01T06:18:54;100836.41;;;2.50;57.00
48964;BME280;34776;48.180;16.420;2023-03-01T06:21:19;100832.03;;;2.53;56.95
48964;BME280;34776;48.180;16.420;2023-03-01T06:23:44;100839.91;;;2.56;57.15
48964;BME280;34776;48.180;16.420;2023-03-01T06:26:10;100838.16;;;2.55;56.77
48964;BME280;34776;48.180;16.420;2023-03-01T06:28:35;100828.53;;;2.57;56.72
48964;BME280;34776;48.180;16.420;2023-03-01T06:31:01;100831.16;;;2.60;56.76
48964;BME280;34776;48.180;16.420;2023-03-01T06:33:27;100828.47;;;2.67;56.72
48964;BME280;34776;48.180;16.420;2023-03-01T06:35:54;100826.72;;;2.75;56.52
48964;BME280;34776;48.180;16.420;2023-03-01T06:38:20;100828.44;;;2.79;56.53
48964;BME280;34776;48.180;16.420;2023-03-01T06:40:51;100831.94;;;2.81;56.43
48964;BME280;34776;48.180;16.420;2023-03-01T06:43:17;100844.19;;;2.79;56.51
48964;BME280;34776;48.180;16.420;2023-03-01T06:45:43;100843.34;;;2.78;56.13
48964;BME280;34776;48.180;16.420;2023-03-01T06:48:08;100843.34;;;2.81;56.06
48964;BME280;34776;48.180;16.420;2023-03-01T06:50:35;100849.44;;;2.88;56.13
48964;BME280;34776;48.180;16.420;2023-03-01T06:53:01;100855.56;;;2.85;56.41
48964;BME280;34776;48.180;16.420;2023-03-01T06:55:27;100852.97;;;2.84;56.28
48964;BME280;34776;48.180;16.420;2023-03-01T06:57:56;100845.94;;;2.83;56.41
48964;BME280;34776;48.180;16.420;2023-03-01T07:00:23;100847.69;;;2.87;56.41
48964;BME280;34776;48.180;16.420;2023-03-01T07:02:48;100847.69;;;2.90;56.50
48964;BME280;34776;48.180;16.420;2023-03-01T07:05:13;100835.41;;;2.89;56.40
48964;BME280;34776;48.180;16.420;2023-03-01T07:07:39;100843.28;;;2.95;56.44
48964;BME280;34776;48.180;16.420;2023-03-01T07:10:05;100839.78;;;2.93;56.48
48964;BME280;34776;48.180;16.420;2023-03-01T07:12:30;100838.84;;;3.07;56.41
48964;BME280;34776;48.180;16.420;2023-03-01T07:14:55;100832.66;;;3.23;56.45
48964;BME280;34776;48.180;16.420;2023-03-01T07:17:21;100835.22;;;3.35;56.02
48964;BME280;34776;48.180;16.420;2023-03-01T07:19:46;100837.75;;;3.51;55.80
48964;BME280;34776;48.180;16.420;2023-03-01T07:22:11;100838.59;;;3.59;55.59
48964;BME280;34776;48.180;16.420;2023-03-01T07:24:37;100843.81;;;3.68;55.38
48964;BME280;34776;48.180;16.420;2023-03-01T07:27:02;100834.06;;;3.78;55.16
48964;BME280;34776;48.180;16.420;2023-03-01T07:29:28;100832.31;;;3.83;55.09
48964;BME280;34776;48.180;16.420;2023-03-01T07:31:54;100834.88;;;3.88;55.15
48964;BME280;34776;48.180;16.420;2023-03-01T07:34:19;100835.75;;;3.90;54.73
48964;BME280;34776;48.180;16.420;2023-03-01T07:36:44;100838.38;;;3.90;54.76
48964;BME280;34776;48.180;16.420;2023-03-01T07:39:11;100837.56;;;3.84;54.67
48964;BME280;34776;48.180;16.420;2023-03-01T07:41:36;100834.06;;;3.78;54.75
48964;BME280;34776;48.180;16.420;2023-03-01T07:44:02;100838.50;;;3.74;54.77
48964;BME280;34776;48.180;16.420;2023-03-01T07:46:27;100835.84;;;3.80;54.94
48964;BME280;34776;48.180;16.420;2023-03-01T07:48:53;100835.75;;;3.93;54.64
48964;BME280;34776;48.180;16.420;2023-03-01T07:51:18;100834.81;;;4.00;54.79
48964;BME280;34776;48.180;16.420;2023-03-01T07:53:46;100831.25;;;4.04;54.25
48964;BME280;34776;48.180;16.420;2023-03-01T07:56:14;100827.63;;;4.17;54.41
48964;BME280;34776;48.180;16.420;2023-03-01T07:58:42;100829.13;;;4.43;53.74
48964;BME280;34776;48.180;16.420;2023-03-01T08:01:10;100827.09;;;4.73;53.37
48964;BME280;34776;48.180;16.420;2023-03-01T08:03:37;100833.03;;;4.90;52.91
48964;BME280;34776;48.180;16.420;2023-03-01T08:06:03;100829.41;;;5.00;52.26
48964;BME280;34776;48.180;16.420;2023-03-01T08:08:30;100828.50;;;5.04;52.47
48964;BME280;34776;48.180;16.420;2023-03-01T08:10:59;100828.28;;;5.20;52.38
48964;BME280;34776;48.180;16.420;2023-03-01T08:13:26;100817.59;;;5.32;52.32
48964;BME280;34776;48.180;16.420;2023-03-01T08:15:52;100827.88;;;5.51;52.04
48964;BME280;34776;48.180;16.420;2023-03-01T08:18:18;100825.03;;;5.64;51.59
48964;BME280;34776;48.180;16.420;2023-03-01T08:20:44;100823.06;;;5.79;51.24
48964;BME280;34776;48.180;16.420;2023-03-01T08:23:09;100818.44;;;5.95;50.99
48964;BME280;34776;48.180;16.420;2023-03-01T08:25:35;100821.50;;;6.21;50.65
48964;BME280;34776;48.180;16.420;2023-03-01T08:28:00;100820.22;;;6.45;50.14
48964;BME280;34776;48.180;16.420;2023-03-01T08:30:26;100820.78;;;6.61;49.76
48964;BME280;34776;48.180;16.420;2023-03-01T08:32:51;100818.75;;;6.76;49.17
48964;BME280;34776;48.180;16.420;2023-03-01T08:35:17;100816.72;;;6.90;49.33
48964;BME280;34776;48.180;16.420;2023-03-01T08:37:42;100813.59;;;7.15;48.78
48964;BME280;34776;48.180;16.420;2023-03-01T08:40:08;100815.41;;;7.51;48.51
48964;BME280;34776;48.180;16.420;2023-03-01T08:42:36;100809.56;;;7.76;47.53
48964;BME280;34776;48.180;16.420;2023-03-01T08:45:05;100807.16;;;8.03;47.27
48964;BME280;34776;48.180;16.420;2023-03-01T08:47:30;100795.75;;;8.33;46.61
48964;BME280;34776;48.180;16.420;2023-03-01T08:49:56;100798.28;;;8.72;46.27
48964;BME280;34776;48.180;16.420;2023-03-01T08:52:21;100791.06;;;8.78;45.95
48964;BME280;34776;48.180;16.420;2023-03-01T08:54:48;100795.06;;;8.92;45.71
48964;BME280;34776;48.180;16.420;2023-03-01T08:57:14;100784.16;;;9.03;45.12
48964;BME280;34776;48.180;16.420;2023-03-01T08:59:39;100793.59;;;9.13;44.85
48964;BME280;34776;48.180;16.420;2023-03-01T09:02:11;100787.63;;;9.05;44.74
48964;BME280;34776;48.180;16.420;2023-03-01T09:04:37;100781.88;;;9.21;44.59
48964;BME280;34776;48.180;16.420;2023-03-01T09:07:02;100775.91;;;9.42;44.44
48964;BME280;34776;48.180;16.420;2023-03-01T09:09:27;100782.41;;;9.60;44.00
48964;BME280;34776;48.180;16.420;2023-03-01T09:11:52;100774.78;;;9.78;43.78
48964;BME280;34776;48.180;16.420;2023-03-01T09:14:18;100765.13;;;9.75;43.34
48964;BME280;34776;48.180;16.420;2023-03-01T09:16:43;100770.84;;;9.63;43.64
48964;BME280;34776;48.180;16.420;2023-03-01T09:19:08;100773.06;;;9.48;43.45
48964;BME280;34776;48.180;16.420;2023-03-01T09:21:34;100761.88;;;9.39;43.72
48964;BME280;34776;48.180;16.420;2023-03-01T09:23:59;100763.75;;;9.35;43.38
48964;BME280;34776;48.180;16.420;2023-03-01T09:26:25;100760.28;;;9.33;43.63
48964;BME280;34776;48.180;16.420;2023-03-01T09:28:53;100756.56;;;9.39;42.96
48964;BME280;34776;48.180;16.420;2023-03-01T09:31:20;100747.25;;;9.53;42.92
48964;BME280;34776;48.180;16.420;2023-03-01T09:33:47;100743.78;;;9.78;43.15
48964;BME280;34776;48.180;16.420;2023-03-01T09:36:16;100742.56;;;10.15;42.47
48964;BME280;34776;48.180;16.420;2023-03-01T09:38:42;100735.19;;;10.23;41.67
48964;BME280;34776;48.180;16.420;2023-03-01T09:44:03;100747.00;;;10.14;41.30
48964;BME280;34776;48.180;16.420;2023-03-01T09:46:38;100738.66;;;10.25;41.39
48964;BME280;34776;48.180;16.420;2023-03-01T09:49:13;100742.84;;;10.32;41.13
48964;BME280;34776;48.180;16.420;2023-03-01T09:51:42;100740.75;;;10.42;41.17
48964;BME280;34776;48.180;16.420;2023-03-01T09:54:09;100734.09;;;10.54;41.09
48964;BME280;34776;48.180;16.420;2023-03-01T10:01:38;100726.94;;;11.49;39.93
48964;BME280;34776;48.180;16.420;2023-03-01T10:09:43;100706.75;;;12.08;38.92
48964;BME280;34776;48.180;16.420;2023-03-01T10:12:17;100709.53;;;12.05;37.92
48964;BME280;34776;48.180;16.420;2023-03-01T10:20:28;100697.25;;;12.62;36.79
48964;BME280;34776;48.180;16.420;2023-03-01T10:22:56;100701.13;;;12.55;37.85
48964;BME280;34776;48.180;16.420;2023-03-01T10:25:36;100701.81;;;12.39;38.06
48964;BME280;34776;48.180;16.420;2023-03-01T10:31:05;100686.72;;;12.59;37.58
48964;BME280;34776;48.180;16.420;2023-03-01T10:33:37;100681.53;;;12.56;36.89
48964;BME280;34776;48.180;16.420;2023-03-01T10:36:05;100680.66;;;12.55;37.53
48964;BME280;34776;48.180;16.420;2023-03-01T10:38:47;100676.09;;;13.14;35.31
48964;BME280;34776;48.180;16.420;2023-03-01T10:41:13;100666.03;;;13.57;35.63
48964;BME280;34776;48.180;16.420;2023-03-01T10:43:50;100671.69;;;13.51;34.69
48964;BME280;34776;48.180;16.420;2023-03-01T10:46:33;100671.00;;;12.91;35.23
48964;BME280;34776;48.180;16.420;2023-03-01T10:49:23;100654.69;;;12.40;35.67
48964;BME280;34776;48.180;16.420;2023-03-01T10:51:51;100665.84;;;12.09;37.70
48964;BME280;34776;48.180;16.420;2023-03-01T10:56:50;100650.97;;;11.62;38.36
48964;BME280;34776;48.180;16.420;2023-03-01T10:59:38;100651.97;;;11.37;37.28
48964;BME280;34776;48.180;16.420;2023-03-01T11:02:36;100643.94;;;11.39;37.32
48964;BME280;34776;48.180;16.420;2023-03-01T11:10:17;100615.13;;;11.91;38.43
48964;BME280;34776;48.180;16.420;2023-03-01T11:12:44;100610.13;;;12.04;38.42
48964;BME280;34776;48.180;16.420;2023-03-01T11:15:29;100619.69;;;12.29;37.58
48964;BME280;34776;48.180;16.420;2023-03-01T11:17:55;100615.88;;;12.72;38.12
48964;BME280;34776;48.180;16.420;2023-03-01T11:20:25;100607.69;;;13.13;37.34
48964;BME280;34776;48.180;16.420;2023-03-01T11:22:58;100600.63;;;13.12;36.37
48964;BME280;34776;48.180;16.420;2023-03-01T11:25:28;100606.88;;;13.11;36.65
48964;BME280;34776;48.180;16.420;2023-03-01T11:27:58;100613.00;;;13.13;36.56
48964;BME280;34776;48.180;16.420;2023-03-01T11:35:26;100609.31;;;12.79;36.51
48964;BME280;34776;48.180;16.420;2023-03-01T11:40:40;100607.03;;;12.13;36.33
48964;BME280;34776;48.180;16.420;2023-03-01T11:43:26;100598.72;;;12.01;36.87
48964;BME280;34776;48.180;16.420;2023-03-01T11:57:00;100617.22;;;10.98;38.71
48964;BME280;34776;48.180;16.420;2023-03-01T12:22:03;100590.47;;;12.07;37.50
48964;BME280;34776;48.180;16.420;2023-03-01T12:24:39;100583.03;;;11.94;37.83
48964;BME280;34776;48.180;16.420;2023-03-01T12:38:41;100576.13;;;12.09;37.34
48964;BME280;34776;48.180;16.420;2023-03-01T12:49:52;100563.50;;;12.52;37.61
48964;BME280;34776;48.180;16.420;2023-03-01T12:52:41;100568.53;;;12.58;37.08
48964;BME280;34776;48.180;16.420;2023-03-01T12:55:23;100560.41;;;12.43;37.48
48964;BME280;34776;48.180;16.420;2023-03-01T12:57:59;100554.56;;;12.34;37.86
48964;BME280;34776;48.180;16.420;2023-03-01T13:00:41;100552.41;;;12.43;37.81
48964;BME280;34776;48.180;16.420;2023-03-01T13:06:07;100537.94;;;12.85;37.24
48964;BME280;34776;48.180;16.420;2023-03-01T13:08:48;100539.63;;;13.05;37.58
48964;BME280;34776;48.180;16.420;2023-03-01T13:11:19;100528.88;;;13.24;37.20
48964;BME280;34776;48.180;16.420;2023-03-01T13:13:45;100536.72;;;13.09;37.06
48964;BME280;34776;48.180;16.420;2023-03-01T13:16:27;100537.50;;;13.11;37.02
48964;BME280;34776;48.180;16.420;2023-03-01T13:19:18;100533.88;;;12.95;37.26
48964;BME280;34776;48.180;16.420;2023-03-01T13:21:46;100536.53;;;12.77;37.61
48964;BME280;34776;48.180;16.420;2023-03-01T13:29:51;100531.66;;;12.68;37.35
48964;BME280;34776;48.180;16.420;2023-03-01T13:32:29;100529.28;;;12.62;37.84
48964;BME280;34776;48.180;16.420;2023-03-01T13:37:35;100526.13;;;12.90;37.89
48964;BME280;34776;48.180;16.420;2023-03-01T13:40:04;100521.25;;;12.81;38.04
48964;BME280;34776;48.180;16.420;2023-03-01T13:42:39;100515.94;;;12.62;38.02
48964;BME280;34776;48.180;16.420;2023-03-01T13:45:16;100514.94;;;12.46;37.96
48964;BME280;34776;48.180;16.420;2023-03-01T13:47:44;100511.78;;;12.00;38.84
48964;BME280;34776;48.180;16.420;2023-03-01T13:50:57;100507.69;;;11.72;39.33
48964;BME280;34776;48.180;16.420;2023-03-01T13:53:26;100506.75;;;11.52;39.53
48964;BME280;34776;48.180;16.420;2023-03-01T13:55:56;100498.88;;;11.30;40.04
48964;BME280;34776;48.180;16.420;2023-03-01T14:01:05;100500.91;;;11.03;40.61
48964;BME280;34776;48.180;16.420;2023-03-01T14:03:33;100487.03;;;10.74;41.05
48964;BME280;34776;48.180;16.420;2023-03-01T14:06:13;100493.09;;;10.56;41.57
48964;BME280;34776;48.180;16.420;2023-03-01T14:08:40;100471.56;;;10.62;41.46
48964;BME280;34776;48.180;16.420;2023-03-01T14:14:17;100482.50;;;10.76;41.55
48964;BME280;34776;48.180;16.420;2023-03-01T14:17:12;100481.59;;;10.77;41.72
48964;BME280;34776;48.180;16.420;2023-03-01T14:19:43;100473.47;;;10.81;41.60
48964;BME280;34776;48.180;16.420;2023-03-01T14:22:18;100469.63;;;10.67;41.74
48964;BME280;34776;48.180;16.420;2023-03-01T14:24:51;100468.69;;;10.46;42.31
48964;BME280;34776;48.180;16.420;2023-03-01T14:27:18;100474.06;;;10.45;42.44
48964;BME280;34776;48.180;16.420;2023-03-01T14:29:58;100468.25;;;10.57;42.58
48964;BME280;34776;48.180;16.420;2023-03-01T14:32:26;100461.03;;;10.61;42.40
48964;BME280;34776;48.180;16.420;2023-03-01T14:34:52;100468.00;;;10.63;42.42
48964;BME280;34776;48.180;16.420;2023-03-01T14:37:34;100467.06;;;10.64;42.35
48964;BME280;34776;48.180;16.420;2023-03-01T14:40:02;100459.97;;;10.65;42.51
48964;BME280;34776;48.180;16.420;2023-03-01T14:42:33;100464.91;;;10.52;42.51
48964;BME280;34776;48.180;16.420;2023-03-01T14:45:00;100472.84;;;10.31;43.03
48964;BME280;34776;48.180;16.420;2023-03-01T14:47:34;100473.50;;;10.13;43.37
48964;BME280;34776;48.180;16.420;2023-03-01T14:50:24;100471.78;;;10.12;43.64
48964;BME280;34776;48.180;16.420;2023-03-01T14:52:55;100468.31;;;10.10;43.49
48964;BME280;34776;48.180;16.420;2023-03-01T14:57:56;100467.06;;;9.96;43.82